Newport, TN (37821)

5:36 AM EDT on September 02, 2014 (GMT -0400)
Pigeon River Rafting | Change Station
CLOSE
Current Station
Personal Weather Station
Location: Hartford, TN
Elevation: 1670 ft
Nearby Weather Stations

Elev 1670 ft 35.81 °N, 83.15 °W | Updated 31 seconds ago

Partly Cloudy
Partly Cloudy
65.8 °F
Feels Like 65.8 °F
N
0.0
Wind Variable Wind from SSE
Gusts 0.0 mph

Today
High -- | Low -- °F
--% Chance of Precip.
Yesterday
High -- | Low -- °F
Precip. -- in
7:05 AM 7:58 PM
Waxing Crescent, 49% visible
Pressure 30.04 in
Visibility 10.0 miles
Clouds Clear
Dew Point 66 °F
Humidity 100%
Rainfall 0.00 in
Snow Depth Not available.
UV 0 out of 12
Pollen 10.20 out of 12
Air Quality Not available.
Flu Activity Not available.
METAR KTYS 020853Z 00000KT 10SM CLR 22/21 A3008 RMK AO2 SLP173 T02220206 53004

More Conditions Fewer Conditions

Pressure 30.04 in
Visibility 10.0 miles
Clouds Clear
Dew Point 66 °F
Humidity 100%
Rainfall 0.00 in
Snow Depth Not available.
UV 0 out of 12
Pollen 10.20 out of 12
Air Quality Not available.
Flu Activity Not available.
METAR KTYS 020853Z 00000KT 10SM CLR 22/21 A3008 RMK AO2 SLP173 T02220206 53004

More Conditions Fewer Conditions

10-Day Weather Forecast

Almanac

Astronomy

Sep. 02, 2014 Rise Set
Actual Time 7:05 AM EDT 7:58 PM EDT
Civil Twilight 6:39 AM EDT 8:24 PM EDT
Nautical Twilight 6:08 AM EDT 8:55 PM EDT
Astronomical Twilight 5:36 AM EDT 9:27 PM EDT
Moon 2:35 PM EDT 12:13 AM EDT
Length of Visible Light 13h 45m
Length of Day
12h 53m
Tomorrow will be 2m 11s shorter.
Waxing Crescent, 49% of the Moon is Illuminated
Today
Waxing Crescent
Sep 2
First Quarter
Sep 8
Full
Sep 15
Last Quarter
Sep 24
New

Today's Extremes

State Highs State Lows

Community

WunderPhotos

Upload Photos

1,749,587 photos uploaded!

WunderBlogs® & News

Nearby

Snow Depth

Station Depth Elevation
No new snow has been reported.

Earthquake Activity

City Distance Mag. Time & Date
No recent earthquake activity has been reported nearby.
Minimum magnitude displayed is 2.5.

Coastal Water Temperatures

Place Temperature
No Stations Reporting

Nearby Weather Stations